Time;durP1;ratioP1;P1;durP2;ratioP2;P2;SDS_P1;SDS_P2;PMS_P1;PMS_P2;Temp;Humidity;BMP_temperature;BMP_pressure;BME280_temperature;BME280_humidity;BME280_pressure;Samples;Min_cycle;Max_cycle;Signal;HPM_P1;HPM_P2
2022/08/05 00:01:13;;;;;;;11.25;6.07;;;17.90;99.90;;;;;;7397846;19;20025;-87
2022/08/05 00:03:39;;;;;;;10.15;6.15;;;17.90;99.90;;;;;;7399711;19;20018;-87
2022/08/05 00:06:06;;;;;;;10.82;5.90;;;17.80;99.90;;;;;;7395547;19;20018;-87
2022/08/05 00:08:32;;;;;;;15.10;6.95;;;17.80;99.90;;;;;;7399231;19;20014;-89
2022/08/05 00:10:59;;;;;;;11.85;6.93;;;17.70;99.90;;;;;;7395223;19;20019;-87
2022/08/05 00:13:25;;;;;;;11.48;6.50;;;17.60;99.90;;;;;;7399625;19;20018;-88
2022/08/05 00:15:52;;;;;;;8.50;6.15;;;17.60;99.90;;;;;;7396941;19;20018;-89
2022/08/05 00:18:18;;;;;;;11.35;6.47;;;17.50;99.90;;;;;;7396526;19;20389;-88
2022/08/05 00:20:44;;;;;;;10.70;5.90;;;17.50;99.90;;;;;;7396823;19;20479;-88
2022/08/05 00:23:10;;;;;;;10.38;5.45;;;17.50;99.90;;;;;;7395978;19;20047;-88
2022/08/05 00:25:36;;;;;;;12.40;4.90;;;17.50;99.90;;;;;;7396022;19;20018;-89
2022/08/05 00:28:01;;;;;;;11.95;4.55;;;17.40;99.90;;;;;;7397161;19;20095;-89
2022/08/05 00:30:27;;;;;;;11.95;5.10;;;17.50;99.90;;;;;;7397293;19;20025;-89
2022/08/05 00:32:53;;;;;;;9.40;4.40;;;17.50;99.90;;;;;;7399032;19;20018;-88
2022/08/05 00:35:19;;;;;;;9.23;3.50;;;17.50;99.90;;;;;;7398394;19;20364;-87
2022/08/05 00:37:45;;;;;;;6.13;3.58;;;17.50;99.90;;;;;;7396482;19;20038;-89
2022/08/05 00:40:11;;;;;;;7.43;3.47;;;17.40;99.90;;;;;;7399919;19;20038;-89
2022/08/05 00:42:38;;;;;;;7.57;3.67;;;17.40;99.90;;;;;;7396667;19;20421;-88
2022/08/05 00:45:07;;;;;;;6.07;3.45;;;17.40;99.90;;;;;;7396311;19;20010;-89
2022/08/05 00:47:33;;;;;;;9.25;3.70;;;17.50;99.90;;;;;;7395524;19;20015;-89
2022/08/05 00:49:59;;;;;;;9.02;3.15;;;17.50;99.90;;;;;;7395010;19;20018;-89
2022/08/05 00:52:24;;;;;;;7.53;3.10;;;17.50;99.90;;;;;;7398602;19;20034;-88
2022/08/05 00:54:50;;;;;;;6.72;3.20;;;17.50;99.90;;;;;;7403800;19;20055;-87
2022/08/05 00:57:17;;;;;;;7.53;2.85;;;17.50;99.90;;;;;;7399782;19;20022;-87
2022/08/05 00:59:43;;;;;;;7.80;2.83;;;17.50;99.90;;;;;;7406595;19;20014;-87
2022/08/05 01:02:11;;;;;;;5.95;3.08;;;17.50;99.90;;;;;;7404472;19;20531;-88
2022/08/05 01:04:37;;;;;;;8.18;3.22;;;17.50;99.90;;;;;;7395193;19;20019;-88
2022/08/05 01:07:03;;;;;;;6.70;3.00;;;17.50;99.90;;;;;;7397150;19;20056;-89
2022/08/05 01:09:29;;;;;;;6.22;3.38;;;17.60;99.90;;;;;;7394515;19;20018;-89
2022/08/05 01:12:01;;;;;;;7.80;3.30;;;17.60;99.90;;;;;;7395943;19;20018;-89
2022/08/05 01:14:32;;;;;;;10.85;3.67;;;17.60;99.90;;;;;;7394607;19;20022;-88
2022/08/05 01:17:07;;;;;;;7.05;2.88;;;17.60;99.90;;;;;;7395534;19;20468;-89
2022/08/05 01:19:42;;;;;;;6.35;3.05;;;17.70;99.90;;;;;;7395746;19;20010;-90
2022/08/05 01:22:19;;;;;;;8.13;2.92;;;17.70;99.90;;;;;;7397439;19;20015;-89
2022/08/05 01:25:10;;;;;;;7.55;2.83;;;17.80;99.90;;;;;;7394820;19;20085;-90
2022/08/05 01:28:06;;;;;;;9.55;3.70;;;17.80;99.90;;;;;;7393869;19;20388;-89
2022/08/05 01:30:38;;;;;;;7.55;3.17;;;17.80;99.90;;;;;;7395500;19;20029;-89
2022/08/05 01:33:08;;;;;;;6.80;2.73;;;17.90;99.90;;;;;;7394963;19;20115;-89
2022/08/05 01:35:38;;;;;;;7.13;2.95;;;18.00;99.90;;;;;;7394972;19;20029;-89
2022/08/05 01:38:07;;;;;;;7.60;3.00;;;18.00;99.90;;;;;;7392904;19;20050;-90
2022/08/05 01:40:33;;;;;;;6.35;2.97;;;18.00;99.90;;;;;;7397266;19;20028;-90
2022/08/05 01:43:02;;;;;;;5.53;2.72;;;18.00;99.90;;;;;;7393746;19;20014;-89
2022/08/05 01:45:30;;;;;;;8.48;3.20;;;18.00;99.90;;;;;;7393174;19;20015;-90
2022/08/05 01:47:59;;;;;;;9.07;3.20;;;18.00;99.90;;;;;;7391865;19;20018;-90
2022/08/05 01:50:33;;;;;;;7.03;3.25;;;18.00;99.90;;;;;;7394329;19;20019;-90
2022/08/05 01:53:02;;;;;;;7.35;3.15;;;17.90;99.90;;;;;;7394554;19;20119;-89
2022/08/05 01:55:31;;;;;;;6.65;2.90;;;17.90;99.90;;;;;;7393508;19;20018;-90
2022/08/05 01:57:58;;;;;;;7.40;2.50;;;18.00;99.90;;;;;;7396088;19;20015;-88
2022/08/05 02:00:25;;;;;;;8.05;2.90;;;18.00;99.90;;;;;;7395948;19;20018;-90
2022/08/05 02:03:02;;;;;;;7.38;2.50;;;17.90;99.90;;;;;;7393202;19;20019;-90
2022/08/05 02:05:33;;;;;;;7.32;2.90;;;17.90;99.90;;;;;;7393699;19;20019;-90
2022/08/05 02:08:00;;;;;;;6.22;2.67;;;17.80;99.90;;;;;;7393962;19;20015;-90
2022/08/05 02:10:30;;;;;;;7.22;3.03;;;17.80;99.90;;;;;;7394053;19;20267;-90
2022/08/05 02:13:03;;;;;;;6.78;2.72;;;17.80;99.90;;;;;;7395024;19;20015;-90
2022/08/05 02:15:33;;;;;;;;;;;17.80;99.90;;;;;;7395639;19;20074;-89
2022/08/05 02:18:05;;;;;;;7.57;3.10;;;17.80;99.90;;;;;;7392713;19;20359;-90
2022/08/05 02:20:51;;;;;;;8.25;3.38;;;17.80;99.90;;;;;;7394618;19;20023;-89
2022/08/05 02:23:23;;;;;;;6.93;3.00;;;17.80;99.90;;;;;;7391650;19;20090;-90
2022/08/05 02:25:51;;;;;;;6.38;3.17;;;17.80;99.90;;;;;;7393205;19;20041;-90
2022/08/05 02:28:26;;;;;;;7.65;3.22;;;17.70;99.90;;;;;;7394182;19;20015;-90
2022/08/05 02:31:07;;;;;;;5.78;2.72;;;17.70;99.90;;;;;;7392943;19;20369;-89
2022/08/05 02:33:40;;;;;;;9.55;4.00;;;17.70;99.90;;;;;;7398243;19;20404;-89
2022/08/05 02:36:11;;;;;;;;;;;17.70;99.90;;;;;;7400690;19;20436;-90
2022/08/05 02:38:38;;;;;;;9.85;4.50;;;17.60;99.90;;;;;;7399804;19;19953;-89
2022/08/05 02:41:08;;;;;;;6.50;4.30;;;17.60;99.90;;;;;;7402307;19;20019;-90
2022/08/05 02:43:37;;;;;;;8.02;3.78;;;17.60;99.90;;;;;;7400037;19;20400;-88
2022/08/05 02:46:04;;;;;;;9.10;4.78;;;17.70;99.90;;;;;;7402146;19;20025;-89
2022/08/05 02:48:31;;;;;;;7.68;4.45;;;17.70;99.90;;;;;;7400205;19;20014;-89
2022/08/05 02:51:01;;;;;;;7.88;4.65;;;17.70;99.90;;;;;;7399710;19;20031;-90
2022/08/05 02:53:29;;;;;;;8.82;4.97;;;17.70;99.90;;;;;;7400737;19;20010;-88
2022/08/05 02:55:55;;;;;;;9.70;4.70;;;17.70;99.90;;;;;;7421188;19;20015;-87
2022/08/05 02:58:23;;;;;;;8.65;4.35;;;17.70;99.90;;;;;;7412406;19;20014;-88
2022/08/05 03:00:51;;;;;;;7.45;4.40;;;17.70;99.90;;;;;;7403657;19;20014;-88
2022/08/05 03:03:19;;;;;;;8.55;4.43;;;17.70;99.90;;;;;;7399083;19;20010;-88
2022/08/05 03:05:49;;;;;;;9.70;4.80;;;17.70;99.90;;;;;;7400647;19;20022;-89
2022/08/05 03:08:16;;;;;;;9.32;4.55;;;17.70;99.90;;;;;;7401720;19;20428;-88
2022/08/05 03:10:45;;;;;;;9.32;4.90;;;17.60;99.90;;;;;;7397919;19;20301;-88
2022/08/05 03:13:15;;;;;;;10.50;4.65;;;17.70;99.90;;;;;;7399858;19;20454;-88
2022/08/05 03:15:45;;;;;;;7.55;4.68;;;17.70;99.90;;;;;;7399447;19;20010;-88
2022/08/05 03:18:11;;;;;;;9.95;4.90;;;17.70;99.90;;;;;;7399531;19;20376;-88
2022/08/05 03:20:38;;;;;;;7.13;4.10;;;17.70;99.90;;;;;;7397103;19;20035;-87
2022/08/05 03:23:05;;;;;;;6.53;2.47;;;17.70;99.90;;;;;;7399010;19;20021;-87
2022/08/05 03:25:33;;;;;;;8.77;4.50;;;17.80;99.90;;;;;;7401526;19;20018;-87
2022/08/05 03:28:00;;;;;;;8.13;3.83;;;17.90;99.90;;;;;;7398955;19;20018;-87
2022/08/05 03:30:31;;;;;;;12.60;4.57;;;18.00;99.90;;;;;;7397088;19;20372;-87
2022/08/05 03:33:00;;;;;;;9.57;4.28;;;18.30;99.90;;;;;;7401342;19;20360;-87
2022/08/05 03:35:27;;;;;;;8.80;4.20;;;18.30;99.90;;;;;;7398858;19;20015;-87
2022/08/05 03:37:57;;;;;;;7.45;4.15;;;18.20;99.90;;;;;;7399511;19;20038;-87
2022/08/05 03:40:23;;;;;;;8.80;4.35;;;18.10;99.90;;;;;;7396876;19;20018;-87
2022/08/05 03:42:49;;;;;;;10.98;4.72;;;18.00;99.90;;;;;;7395777;19;20017;-87
2022/08/05 03:45:14;;;;;;;5.78;3.97;;;17.90;99.90;;;;;;7397890;19;20089;-87
2022/08/05 03:47:40;;;;;;;7.78;4.63;;;17.90;99.90;;;;;;7398273;19;20479;-87
2022/08/05 03:50:06;;;;;;;10.63;4.88;;;17.80;99.90;;;;;;7397370;19;20034;-87
2022/08/05 03:52:38;;;;;;;10.20;4.65;;;17.70;99.90;;;;;;7400034;19;20015;-86
2022/08/05 03:55:09;;;;;;;9.25;4.30;;;17.70;99.90;;;;;;7398838;19;20037;-87
2022/08/05 03:57:38;;;;;;;11.05;4.63;;;17.70;99.90;;;;;;7399357;19;20038;-87
2022/08/05 04:00:08;;;;;;;8.70;4.32;;;17.70;99.90;;;;;;7398309;19;20074;-87
2022/08/05 04:02:36;;;;;;;7.05;3.45;;;17.70;99.90;;;;;;7398559;19;20018;-87
2022/08/05 04:05:05;;;;;;;7.30;2.83;;;17.80;99.90;;;;;;7398963;19;20020;-87
2022/08/05 04:07:32;;;;;;;6.20;4.07;;;18.00;99.90;;;;;;7398908;19;20444;-87
2022/08/05 04:09:59;;;;;;;6.38;4.03;;;18.00;99.90;;;;;;7397531;19;20011;-86
2022/08/05 04:12:25;;;;;;;8.70;4.20;;;17.90;99.90;;;;;;7397916;19;20014;-87
2022/08/05 04:14:51;;;;;;;7.88;4.22;;;17.80;99.90;;;;;;7395730;19;20106;-87
2022/08/05 04:17:17;;;;;;;6.72;3.60;;;17.70;99.90;;;;;;7397501;19;20052;-87
2022/08/05 04:19:45;;;;;;;7.57;3.80;;;17.70;99.90;;;;;;7398976;19;20537;-86
2022/08/05 04:22:11;;;;;;;7.95;4.15;;;17.70;99.90;;;;;;7396842;19;20389;-86
2022/08/05 04:24:39;;;;;;;8.52;3.85;;;17.60;99.90;;;;;;7395925;19;20020;-86
2022/08/05 04:27:05;;;;;;;9.90;4.15;;;17.70;99.90;;;;;;7397422;19;20010;-86
2022/08/05 04:29:31;;;;;;;7.10;3.20;;;17.70;99.90;;;;;;7397608;19;20014;-86
2022/08/05 04:31:56;;;;;;;9.25;3.63;;;17.70;99.90;;;;;;7395431;19;20031;-86
2022/08/05 04:34:22;;;;;;;7.82;3.75;;;17.60;99.90;;;;;;7395775;19;20018;-86
2022/08/05 04:36:48;;;;;;;7.13;3.70;;;17.70;99.90;;;;;;7394199;19;20070;-87
2022/08/05 04:39:14;;;;;;;9.07;3.78;;;17.70;99.90;;;;;;7397382;19;20090;-86
2022/08/05 04:41:40;;;;;;;11.07;3.83;;;17.60;99.90;;;;;;7397216;19;20018;-87
2022/08/05 04:44:06;;;;;;;9.63;3.75;;;17.70;99.90;;;;;;7395885;19;20380;-86
2022/08/05 04:46:31;;;;;;;9.55;3.88;;;17.70;99.90;;;;;;7394114;19;20015;-86
2022/08/05 04:48:57;;;;;;;8.90;3.65;;;17.70;99.90;;;;;;7397005;19;20014;-87
2022/08/05 04:51:23;;;;;;;9.50;3.97;;;17.60;99.90;;;;;;7393349;19;20021;-86
2022/08/05 04:53:49;;;;;;;7.78;3.00;;;17.60;99.90;;;;;;7400932;19;20027;-84
2022/08/05 04:56:15;;;;;;;7.85;3.20;;;17.70;99.90;;;;;;7397556;19;20010;-86
2022/08/05 04:58:41;;;;;;;6.15;3.47;;;17.70;99.90;;;;;;7397878;19;20021;-87
2022/08/05 05:01:08;;;;;;;11.75;3.70;;;17.60;99.90;;;;;;7397531;19;20034;-87
2022/08/05 05:03:33;;;;;;;9.48;3.33;;;17.60;99.90;;;;;;7393249;19;20086;-87
2022/08/05 05:05:59;;;;;;;7.20;3.63;;;17.60;99.90;;;;;;7397450;19;20073;-86
2022/08/05 05:08:25;;;;;;;8.13;2.85;;;17.60;99.90;;;;;;7395153;19;20024;-86
2022/08/05 05:10:51;;;;;;;14.45;3.53;;;17.70;99.90;;;;;;7395630;19;20019;-87
2022/08/05 05:13:17;;;;;;;4.80;2.88;;;17.70;99.90;;;;;;7394913;19;20018;-86
2022/08/05 05:15:44;;;;;;;7.32;3.40;;;17.80;99.90;;;;;;7396350;19;20015;-88
2022/08/05 05:18:14;;;;;;;7.93;2.90;;;17.80;99.90;;;;;;7397051;19;20034;-86
2022/08/05 05:20:44;;;;;;;6.28;3.05;;;17.80;99.90;;;;;;7395591;19;20019;-87
2022/08/05 05:23:10;;;;;;;7.20;3.10;;;17.80;99.90;;;;;;7393895;19;20014;-88
2022/08/05 05:25:36;;;;;;;5.95;2.85;;;17.80;99.90;;;;;;7397142;19;20082;-88
2022/08/05 05:28:02;;;;;;;6.10;2.50;;;17.90;99.90;;;;;;7394779;19;20014;-88
2022/08/05 05:30:28;;;;;;;8.05;3.30;;;18.00;99.90;;;;;;7393494;19;20030;-88
2022/08/05 05:32:54;;;;;;;8.98;3.25;;;18.10;99.90;;;;;;7395752;19;20015;-88
2022/08/05 05:35:21;;;;;;;8.65;3.15;;;18.10;99.90;;;;;;7392081;19;20017;-84
2022/08/05 05:37:53;;;;;;;8.02;3.30;;;18.10;99.90;;;;;;7395664;19;21153;-83
2022/08/05 05:40:21;;;;;;;8.63;3.45;;;18.10;99.90;;;;;;7392700;19;20040;-83
2022/08/05 05:42:47;;;;;;;5.22;2.75;;;18.20;99.90;;;;;;7391761;19;20019;-83
2022/08/05 05:45:14;;;;;;;5.97;3.10;;;18.20;99.90;;;;;;7393503;19;20015;-82
2022/08/05 05:47:40;;;;;;;6.00;3.40;;;18.30;99.90;;;;;;7392754;19;20010;-83
2022/08/05 05:50:11;;;;;;;10.02;4.28;;;18.30;99.90;;;;;;7394188;19;20037;-83
2022/08/05 05:52:37;;;;;;;9.80;4.63;;;18.40;99.90;;;;;;7393310;19;20369;-83
2022/08/05 05:55:07;;;;;;;8.10;4.35;;;18.40;99.90;;;;;;7396052;19;20036;-83
2022/08/05 05:57:34;;;;;;;9.18;4.57;;;18.40;99.90;;;;;;7393491;19;20420;-83
2022/08/05 06:00:01;;;;;;;7.20;4.05;;;18.40;99.90;;;;;;7393092;19;20103;-83
2022/08/05 06:02:27;;;;;;;8.50;4.38;;;18.40;99.90;;;;;;7392141;19;20502;-83
2022/08/05 06:04:53;;;;;;;9.18;4.15;;;18.50;99.90;;;;;;7395805;19;20018;-82
2022/08/05 06:07:19;;;;;;;7.38;4.00;;;18.50;99.90;;;;;;7395472;19;20014;-82
2022/08/05 06:09:45;;;;;;;8.02;4.28;;;18.50;99.90;;;;;;7394746;19;20014;-82
2022/08/05 06:12:11;;;;;;;8.30;4.28;;;18.40;99.90;;;;;;7394549;19;20048;-83
2022/08/05 06:14:36;;;;;;;11.88;4.50;;;18.50;99.90;;;;;;7397041;19;20011;-82
2022/08/05 06:17:03;;;;;;;8.30;4.90;;;18.40;99.90;;;;;;7392291;19;20013;-83
2022/08/05 06:19:29;;;;;;;9.52;4.60;;;18.40;99.90;;;;;;7392641;19;20019;-83
2022/08/05 06:21:55;;;;;;;9.18;4.80;;;18.40;99.90;;;;;;7392632;19;20083;-83
2022/08/05 06:24:21;;;;;;;9.10;4.90;;;18.40;99.90;;;;;;7395486;19;20019;-83
2022/08/05 06:26:47;;;;;;;8.93;4.80;;;18.50;99.90;;;;;;7393123;19;20022;-83
2022/08/05 06:29:12;;;;;;;9.32;4.00;;;18.50;99.90;;;;;;7393450;19;20014;-83
2022/08/05 06:31:38;;;;;;;8.00;3.95;;;18.50;99.90;;;;;;7390604;19;20010;-82
2022/08/05 06:34:04;;;;;;;5.95;4.05;;;18.50;99.90;;;;;;7392675;19;20003;-83
2022/08/05 06:36:30;;;;;;;10.35;3.97;;;18.60;99.90;;;;;;7391960;19;20794;-83
2022/08/05 06:38:56;;;;;;;6.82;3.70;;;18.80;99.90;;;;;;7391864;19;20479;-83
2022/08/05 06:41:22;;;;;;;7.15;3.80;;;18.90;99.90;;;;;;7389887;19;20022;-83
2022/08/05 06:43:48;;;;;;;8.82;4.00;;;19.00;99.90;;;;;;7393871;19;20026;-83
2022/08/05 06:46:14;;;;;;;5.88;3.50;;;19.00;99.90;;;;;;7395455;19;20409;-83
2022/08/05 06:48:40;;;;;;;5.03;2.65;;;19.10;99.90;;;;;;7393802;19;20379;-83
2022/08/05 06:51:06;;;;;;;7.63;2.70;;;19.20;99.90;;;;;;7392860;19;20031;-81
2022/08/05 06:53:33;;;;;;;5.85;2.80;;;19.20;99.90;;;;;;7391831;19;20494;-82
2022/08/05 06:56:02;;;;;;;4.57;2.22;;;19.20;99.90;;;;;;7392058;19;20015;-82
2022/08/05 06:58:29;;;;;;;4.75;2.38;;;19.20;99.90;;;;;;7391848;19;20018;-83
2022/08/05 07:00:59;;;;;;;6.20;2.35;;;19.20;99.90;;;;;;7393866;19;20421;-83
2022/08/05 07:03:27;;;;;;;7.00;3.05;;;19.20;99.90;;;;;;7394245;19;20026;-82
2022/08/05 07:05:54;;;;;;;4.68;2.35;;;19.30;99.90;;;;;;7389988;19;20011;-82
2022/08/05 07:08:21;;;;;;;6.95;2.85;;;19.40;99.90;;;;;;7391293;19;20030;-82
2022/08/05 07:10:47;;;;;;;4.78;2.25;;;19.40;99.90;;;;;;7390019;19;20031;-83
2022/08/05 07:18:43;;;;;;;4.00;2.00;;;19.50;99.90;;;;;;7393906;19;20015;-82
2022/08/05 07:21:08;;;;;;;5.88;1.85;;;19.60;99.90;;;;;;7399678;19;20087;-82
2022/08/05 07:23:36;;;;;;;3.25;1.50;;;19.70;99.90;;;;;;7399763;19;20355;-83
2022/08/05 07:26:03;;;;;;;9.43;1.80;;;20.10;99.90;;;;;;7396276;19;20074;-82
2022/08/05 07:28:28;;;;;;;4.13;1.40;;;20.80;99.90;;;;;;7396671;19;20015;-83
2022/08/05 07:30:55;;;;;;;6.70;1.42;;;21.30;99.90;;;;;;7394692;19;20029;-83
2022/08/05 07:33:21;;;;;;;5.22;1.13;;;21.70;99.90;;;;;;7396937;19;20023;-83
2022/08/05 07:35:47;;;;;;;4.00;1.23;;;23.20;99.90;;;;;;7398778;19;20483;-83
2022/08/05 07:38:15;;;;;;;5.95;1.42;;;25.20;99.90;;;;;;7402040;19;20703;-83
2022/08/05 07:40:40;;;;;;;3.25;1.35;;;26.40;99.90;;;;;;7398671;19;21351;-82
2022/08/05 07:43:06;;;;;;;3.53;1.10;;;25.60;99.90;;;;;;7396181;19;20011;-82
2022/08/05 07:45:32;;;;;;;5.60;1.30;;;25.10;99.90;;;;;;7397532;19;20036;-82
2022/08/05 07:47:58;;;;;;;2.60;1.10;;;24.60;99.90;;;;;;7394391;19;20018;-82
2022/08/05 07:50:24;;;;;;;3.75;1.10;;;24.60;99.90;;;;;;7400455;19;20014;-82
2022/08/05 07:52:50;;;;;;;2.38;1.00;;;24.30;99.90;;;;;;7398876;19;20077;-82
2022/08/05 07:55:16;;;;;;;4.30;1.40;;;24.10;99.90;;;;;;7394911;19;20021;-82
2022/08/05 07:57:42;;;;;;;2.97;1.05;;;23.80;99.90;;;;;;7395566;19;20007;-82
2022/08/05 08:00:08;;;;;;;4.85;1.45;;;23.40;99.90;;;;;;7396754;19;20376;-82
2022/08/05 08:02:34;;;;;;;3.45;1.75;;;23.10;99.90;;;;;;7396869;19;20014;-82
2022/08/05 08:05:01;;;;;;;4.65;1.20;;;22.60;99.90;;;;;;7397329;19;20031;-82
2022/08/05 08:07:27;;;;;;;4.82;1.20;;;22.20;99.90;;;;;;7397650;19;20340;-82
2022/08/05 08:09:53;;;;;;;3.47;1.40;;;22.00;99.90;;;;;;7396908;19;20007;-82
2022/08/05 08:12:20;;;;;;;3.97;1.30;;;22.00;99.90;;;;;;7397026;19;20026;-82
2022/08/05 08:14:46;;;;;;;3.45;1.60;;;22.60;99.90;;;;;;7400067;19;20026;-82
2022/08/05 08:17:11;;;;;;;4.03;1.30;;;22.90;99.90;;;;;;7394561;19;20027;-82
2022/08/05 08:19:38;;;;;;;1.92;1.00;;;22.90;99.90;;;;;;7396496;19;20031;-82
2022/08/05 08:22:05;;;;;;;6.22;1.63;;;23.20;99.90;;;;;;7396252;19;20015;-81
2022/08/05 08:24:31;;;;;;;6.10;1.50;;;23.90;99.90;;;;;;7396608;19;20041;-82
2022/08/05 08:26:57;;;;;;;3.38;1.58;;;24.30;99.90;;;;;;7394789;19;20093;-82
2022/08/05 08:29:23;;;;;;;2.80;1.55;;;24.20;99.90;;;;;;7393983;19;20052;-82
2022/08/05 08:31:49;;;;;;;3.15;1.20;;;24.20;99.90;;;;;;7393030;19;20487;-83
2022/08/05 08:34:17;;;;;;;3.83;1.50;;;23.90;99.90;;;;;;7394633;19;20022;-82
2022/08/05 08:36:43;;;;;;;5.10;1.23;;;23.70;99.90;;;;;;7396758;19;20026;-88
2022/08/05 08:39:09;;;;;;;3.63;1.10;;;24.40;99.90;;;;;;7396847;19;20018;-82
2022/08/05 08:41:39;;;;;;;2.35;1.08;;;25.10;99.90;;;;;;7390995;19;20023;-82
2022/08/05 08:44:07;;;;;;;3.42;1.00;;;25.30;99.90;;;;;;7397584;19;20026;-85
2022/08/05 08:46:33;;;;;;;4.15;1.00;;;24.90;99.90;;;;;;7395320;19;20007;-82
2022/08/05 08:49:02;;;;;;;3.25;1.13;;;24.60;99.90;;;;;;7367191;19;20782;-85
2022/08/05 08:51:36;;;;;;;5.35;0.80;;;24.40;99.90;;;;;;7394840;19;20042;-85
2022/08/05 08:54:02;;;;;;;2.97;1.00;;;24.20;99.90;;;;;;7393974;19;20081;-87
2022/08/05 08:58:58;;;;;;;4.35;0.93;;;24.00;99.90;;;;;;7385071;19;20082;-78
2022/08/05 09:01:24;;;;;;;2.40;1.05;;;23.90;99.90;;;;;;7394797;19;20033;-87
2022/08/05 09:03:52;;;;;;;3.88;0.90;;;23.80;99.90;;;;;;7374947;19;20037;-88
2022/08/05 09:06:19;;;;;;;3.15;0.80;;;23.80;99.90;;;;;;7392842;19;20046;-92
2022/08/05 09:08:45;;;;;;;3.15;0.60;;;24.00;99.90;;;;;;7397542;19;20022;-91
2022/08/05 09:11:12;;;;;;;2.90;0.70;;;24.00;99.90;;;;;;7367877;19;20015;-94
2022/08/05 09:13:38;;;;;;;3.30;0.70;;;23.70;99.90;;;;;;7397174;19;20018;-95
2022/08/05 09:16:07;;;;;;;1.98;0.90;;;23.60;99.90;;;;;;7394574;19;20022;-90
2022/08/05 09:18:35;;;;;;;2.97;0.88;;;23.50;99.90;;;;;;7390863;19;20033;-89
2022/08/05 09:21:01;;;;;;;3.05;0.68;;;23.50;99.90;;;;;;7394288;19;20482;-91
2022/08/05 09:23:27;;;;;;;2.13;0.57;;;23.30;99.90;;;;;;7392657;19;20014;-92
2022/08/05 09:26:08;;;;;;;1.25;0.50;;;23.30;99.90;;;;;;7392260;19;20021;-90
2022/08/05 09:28:37;;;;;;;1.17;0.88;;;23.20;99.90;;;;;;7394622;19;20014;-85
2022/08/05 09:31:08;;;;;;;2.75;0.70;;;23.30;99.90;;;;;;7380153;19;20043;-83
2022/08/05 09:33:57;;;;;;;3.38;0.80;;;23.30;99.90;;;;;;7389441;19;20014;-84
2022/08/05 09:36:37;;;;;;;3.17;0.88;;;23.20;99.90;;;;;;7393019;19;20450;-84
2022/08/05 09:39:06;;;;;;;2.25;0.73;;;23.10;99.90;;;;;;7398712;19;20015;-84
2022/08/05 09:41:32;;;;;;;1.05;0.60;;;23.00;99.90;;;;;;7393540;19;20015;-86
2022/08/05 09:43:58;;;;;;;3.63;1.38;;;23.00;99.90;;;;;;7392918;19;20428;-83
2022/08/05 09:46:32;;;;;;;5.22;2.50;;;22.90;99.90;;;;;;7396445;19;20019;-84
2022/08/05 09:49:03;;;;;;;3.53;1.58;;;22.90;99.90;;;;;;7398370;19;20026;-85
2022/08/05 09:51:40;;;;;;;4.90;1.20;;;22.90;99.90;;;;;;7392627;19;20021;-81
2022/08/05 09:54:07;;;;;;;3.38;1.00;;;22.90;99.90;;;;;;7384699;19;20441;-82
2022/08/05 09:56:38;;;;;;;2.28;0.70;;;22.80;99.90;;;;;;7394921;19;20098;-84
2022/08/05 09:59:10;;;;;;;3.42;1.20;;;22.60;99.90;;;;;;7391357;19;20066;-81
2022/08/05 10:01:41;;;;;;;3.17;1.17;;;22.50;99.90;;;;;;7392685;19;20498;-83
2022/08/05 10:04:12;;;;;;;2.72;0.80;;;22.60;99.90;;;;;;7392602;19;20018;-83
2022/08/05 10:06:40;;;;;;;4.00;0.93;;;22.70;99.90;;;;;;7394923;19;20021;-85
2022/08/05 10:09:17;;;;;;;3.95;1.20;;;22.80;99.90;;;;;;7394200;19;20027;-86
2022/08/05 10:11:44;;;;;;;4.40;1.33;;;23.10;99.90;;;;;;7391999;19;20019;-84
2022/08/05 10:14:21;;;;;;;2.95;1.00;;;23.20;99.90;;;;;;7390527;19;20030;-84
2022/08/05 10:16:47;;;;;;;2.60;0.80;;;23.30;99.90;;;;;;7393350;19;20010;-85
2022/08/05 10:19:15;;;;;;;4.05;1.40;;;23.20;99.90;;;;;;7392443;19;20037;-83
2022/08/05 10:21:41;;;;;;;4.55;0.80;;;23.10;99.90;;;;;;7392008;19;20015;-85
2022/08/05 10:24:11;;;;;;;3.38;1.27;;;22.80;99.90;;;;;;7391517;19;20103;-83
2022/08/05 10:26:42;;;;;;;4.15;1.35;;;22.50;99.90;;;;;;7392235;19;20028;-83
2022/08/05 10:29:08;;;;;;;2.13;0.47;;;22.50;99.90;;;;;;7393050;19;20031;-84
2022/08/05 10:31:34;;;;;;;4.40;0.80;;;22.60;99.90;;;;;;7389105;19;20018;-83
2022/08/05 10:34:00;;;;;;;2.38;0.68;;;23.00;99.90;;;;;;7380889;19;20042;-84
2022/08/05 10:36:26;;;;;;;2.67;1.00;;;23.20;99.90;;;;;;7394143;19;20471;-83
2022/08/05 10:39:17;;;;;;;1.75;0.70;;;23.30;99.70;;;;;;7390372;19;20051;-83
2022/08/05 10:42:15;;;;;;;3.83;0.85;;;23.50;99.20;;;;;;7394191;19;20019;-83
2022/08/05 10:44:45;;;;;;;0.63;0.35;;;23.70;98.50;;;;;;7392034;19;20078;-83
2022/08/05 10:47:13;;;;;;;2.22;0.68;;;23.70;97.00;;;;;;7393634;19;20014;-83
2022/08/05 10:49:59;;;;;;;3.60;0.50;;;23.80;97.00;;;;;;7391154;19;20048;-83
2022/08/05 10:52:43;;;;;;;1.20;0.70;;;23.70;97.10;;;;;;7373656;19;20015;-84
2022/08/05 10:55:12;;;;;;;2.33;0.50;;;23.60;97.80;;;;;;7396689;19;20066;-84
2022/08/05 10:57:40;;;;;;;1.70;0.60;;;23.40;97.60;;;;;;7402100;19;20007;-84
2022/08/05 11:00:22;;;;;;;2.75;0.60;;;23.60;98.00;;;;;;7399306;19;20499;-84
2022/08/05 11:02:58;;;;;;;2.88;0.60;;;23.60;96.40;;;;;;7399201;19;20014;-82
2022/08/05 11:05:24;;;;;;;4.22;0.70;;;23.70;96.80;;;;;;7398376;19;20381;-81
2022/08/05 11:07:58;;;;;;;4.18;0.43;;;23.90;97.10;;;;;;7396128;19;20029;-82
2022/08/05 11:10:25;;;;;;;2.97;0.50;;;24.00;95.50;;;;;;7396167;19;20015;-83
2022/08/05 11:12:51;;;;;;;2.38;0.47;;;24.00;95.30;;;;;;7402567;19;20014;-82
2022/08/05 11:15:19;;;;;;;2.35;0.50;;;23.90;95.70;;;;;;7399160;19;20391;-83
2022/08/05 11:17:47;;;;;;;1.70;0.50;;;23.90;95.40;;;;;;7394501;19;20021;-84
2022/08/05 11:20:42;;;;;;;2.22;0.60;;;24.00;94.70;;;;;;7397301;19;20467;-88
2022/08/05 11:23:29;;;;;;;3.75;0.47;;;23.80;94.20;;;;;;7395033;19;20021;-85
2022/08/05 11:26:08;;;;;;;1.50;0.30;;;23.90;94.50;;;;;;7400068;19;20434;-85
2022/08/05 11:28:39;;;;;;;2.90;0.52;;;24.00;93.90;;;;;;7396792;19;20039;-83
2022/08/05 11:31:04;;;;;;;2.60;0.30;;;24.00;93.80;;;;;;7395423;19;20082;-86
2022/08/05 11:33:33;;;;;;;1.77;0.30;;;23.90;92.90;;;;;;7377650;19;20018;-83
2022/08/05 11:36:01;;;;;;;1.10;0.40;;;23.90;93.40;;;;;;7399657;19;20085;-86
2022/08/05 11:38:42;;;;;;;3.25;0.32;;;24.00;92.50;;;;;;7398186;19;20003;-85
2022/08/05 11:41:28;;;;;;;2.17;0.47;;;23.80;91.60;;;;;;7396753;19;20082;-85
2022/08/05 11:43:55;;;;;;;1.65;0.30;;;23.70;92.00;;;;;;7397285;19;20486;-85
2022/08/05 11:46:31;;;;;;;1.85;0.20;;;23.50;91.80;;;;;;7397093;19;20462;-83
2022/08/05 11:48:58;;;;;;;5.38;0.30;;;23.30;92.30;;;;;;7400537;19;20010;-83
2022/08/05 11:51:27;;;;;;;2.78;0.40;;;23.30;93.40;;;;;;7396292;19;20111;-83
2022/08/05 11:53:54;;;;;;;1.52;0.20;;;23.60;93.60;;;;;;7396526;19;20562;-85
2022/08/05 11:56:20;;;;;;;2.58;0.20;;;23.70;92.10;;;;;;7396596;19;20471;-86
2022/08/05 11:58:47;;;;;;;2.42;0.45;;;23.70;92.70;;;;;;7394504;19;20082;-85
2022/08/05 12:01:21;;;;;;;3.03;0.20;;;23.50;92.90;;;;;;7395944;19;20017;-85
2022/08/05 12:03:46;;;;;;;1.85;0.22;;;23.40;92.20;;;;;;7394778;19;20022;-85
2022/08/05 12:06:14;;;;;;;1.30;0.30;;;23.30;92.70;;;;;;7396009;19;20021;-86
2022/08/05 12:08:49;;;;;;;2.85;0.30;;;23.30;92.70;;;;;;7397194;19;20034;-86
2022/08/05 12:11:28;;;;;;;0.93;0.30;;;23.30;92.10;;;;;;7396757;19;20018;-86
2022/08/05 12:14:03;;;;;;;1.33;0.30;;;23.30;91.50;;;;;;7395839;19;20078;-85
2022/08/05 12:16:35;;;;;;;2.83;0.40;;;23.30;91.40;;;;;;7394858;19;20010;-85
2022/08/05 12:19:02;;;;;;;2.92;0.52;;;23.10;92.00;;;;;;7396306;19;20021;-85
2022/08/05 12:21:41;;;;;;;1.45;0.20;;;23.00;92.00;;;;;;7395302;19;20010;-85
2022/08/05 12:24:08;;;;;;;1.50;0.30;;;23.10;93.50;;;;;;7398008;19;20014;-86
2022/08/05 12:26:51;;;;;;;1.73;0.32;;;23.20;93.10;;;;;;7399360;19;20015;-85
2022/08/05 12:29:23;;;;;;;;;;;23.10;92.60;;;;;;7399067;19;20051;-86
2022/08/05 12:31:51;;;;;;;1.67;0.25;;;23.00;92.30;;;;;;7392514;19;19923;-86
2022/08/05 12:34:20;;;;;;;2.38;0.30;;;22.70;91.90;;;;;;7396584;19;20018;-86
2022/08/05 12:36:46;;;;;;;3.65;0.70;;;22.80;92.10;;;;;;7394709;19;20042;-85
2022/08/05 12:39:13;;;;;;;2.92;0.30;;;22.60;91.70;;;;;;7395404;19;20007;-86
2022/08/05 12:41:40;;;;;;;3.30;0.50;;;22.30;93.20;;;;;;7395143;19;20341;-86
2022/08/05 12:44:11;;;;;;;3.17;0.77;;;22.30;94.10;;;;;;7397761;19;20021;-86
2022/08/05 12:46:39;;;;;;;5.50;0.40;;;22.10;93.50;;;;;;7394502;19;20011;-85
2022/08/05 12:49:10;;;;;;;3.55;0.50;;;22.40;94.10;;;;;;7394568;19;20014;-86
2022/08/05 12:52:03;;;;;;;2.67;0.65;;;22.20;92.50;;;;;;7392951;19;20421;-85
2022/08/05 12:54:30;;;;;;;2.15;0.60;;;22.30;92.80;;;;;;7396611;19;20405;-85
2022/08/05 12:57:03;;;;;;;3.15;0.32;;;22.30;92.10;;;;;;7397449;19;20015;-85
2022/08/05 12:59:45;;;;;;;4.03;0.28;;;22.20;92.60;;;;;;7399208;19;20014;-84
2022/08/05 13:02:14;;;;;;;4.28;0.47;;;22.10;92.60;;;;;;7397202;19;20022;-83
2022/08/05 13:04:43;;;;;;;5.05;0.57;;;22.10;93.00;;;;;;7394412;19;20014;-83